THY1525 LTFM-LTAU
Flight info
| Callsign | THY1525 |
|---|---|
| Flight time | N/A |
| Altitude | 31000 |
| Route | ASMAP UT341 BAG UA17 YUCEL UL605 BELSU UA17 KISLA |
| Aircraft | A320/M-SDE3FGHIRWY/LB1 |
Departure
| Time | 2026-05-07 19:38 |
|---|---|
| Airport | İstanbul Airport (LTFM) |
Arrival
| Time | N/A |
|---|---|
| Airport | Kayseri Erkilet International Airport (LTAU) |
| Time | Latitude | Longitude | Altitude | Speed | Heading |
|---|---|---|---|---|---|
| 2026-05-07 19:05 | 41.26123 | 28.74887 | 334 ft | 0 kts | 254° |
| 2026-05-07 19:31 | 41.26129 | 28.74914 | 329 ft | 4 kts | 251° |
| 2026-05-07 19:31 | 41.26139 | 28.74947 | 332 ft | 4 kts | 244° |
| 2026-05-07 19:32 | 41.26152 | 28.74978 | 330 ft | 4 kts | 230° |
| 2026-05-07 19:32 | 41.26170 | 28.74998 | 331 ft | 0 kts | 187° |
| 2026-05-07 19:32 | 41.26174 | 28.74997 | 331 ft | 1 kts | 225° |
| 2026-05-07 19:33 | 41.26179 | 28.75002 | 331 ft | 1 kts | 263° |
| 2026-05-07 19:33 | 41.26181 | 28.75010 | 330 ft | 1 kts | 291° |
| 2026-05-07 19:33 | 41.26181 | 28.75015 | 330 ft | 0 kts | 318° |
| 2026-05-07 19:34 | 41.26187 | 28.75007 | 330 ft | 2 kts | 316° |
| 2026-05-07 19:34 | 41.26187 | 28.75006 | 330 ft | 0 kts | 316° |
| 2026-05-07 19:35 | 41.26229 | 28.75004 | 332 ft | 15 kts | 36° |
| 2026-05-07 19:35 | 41.26244 | 28.75155 | 334 ft | 19 kts | 86° |
| 2026-05-07 19:35 | 41.26247 | 28.75338 | 334 ft | 16 kts | 85° |
| 2026-05-07 19:36 | 41.26291 | 28.75389 | 332 ft | 0 kts | 4° |
| 2026-05-07 19:36 | 41.26293 | 28.75389 | 332 ft | 3 kts | 3° |
| 2026-05-07 19:36 | 41.26335 | 28.75437 | 333 ft | 16 kts | 78° |
| 2026-05-07 19:36 | 41.26328 | 28.75601 | 334 ft | 16 kts | 108° |
| 2026-05-07 19:37 | 41.26353 | 28.75666 | 333 ft | 0 kts | 355° |
| 2026-05-07 19:37 | 41.26354 | 28.75665 | 334 ft | 3 kts | 355° |
| 2026-05-07 19:37 | 41.26669 | 28.75657 | 330 ft | 85 kts | 360° |
| 2026-05-07 19:37 | 41.27474 | 28.75645 | 333 ft | 143 kts | 360° |
| 2026-05-07 19:38 | 41.28570 | 28.75627 | 726 ft | 160 kts | 358° |
| 2026-05-07 19:38 | 41.29686 | 28.75642 | 1442 ft | 162 kts | 6° |
| 2026-05-07 19:38 | 41.30660 | 28.76433 | 2092 ft | 171 kts | 42° |
| 2026-05-07 19:38 | 41.31558 | 28.77454 | 2815 ft | 167 kts | 25° |
| 2026-05-07 19:39 | 41.32547 | 28.78213 | 3610 ft | 158 kts | 25° |
| 2026-05-07 19:39 | 41.33543 | 28.78961 | 4118 ft | 174 kts | 25° |
| 2026-05-07 19:39 | 41.34653 | 28.79784 | 4446 ft | 196 kts | 26° |
| 2026-05-07 19:39 | 41.35902 | 28.80758 | 4768 ft | 221 kts | 33° |
| 2026-05-07 19:40 | 41.37091 | 28.82250 | 5157 ft | 249 kts | 50° |
| 2026-05-07 19:40 | 41.37993 | 28.84352 | 5647 ft | 275 kts | 69° |
| 2026-05-07 19:40 | 41.38372 | 28.86891 | 6504 ft | 285 kts | 88° |
| 2026-05-07 19:40 | 41.38343 | 28.89545 | 7441 ft | 289 kts | 97° |
| 2026-05-07 19:41 | 41.37654 | 28.92056 | 8371 ft | 293 kts | 124° |
| 2026-05-07 19:41 | 41.36186 | 28.93923 | 9307 ft | 296 kts | 151° |
| 2026-05-07 19:41 | 41.34234 | 28.94750 | 10194 ft | 299 kts | 175° |
| 2026-05-07 19:41 | 41.32071 | 28.94867 | 10533 ft | 323 kts | 180° |
| 2026-05-07 19:42 | 41.29749 | 28.94899 | 10858 ft | 344 kts | 181° |
| 2026-05-07 19:42 | 41.27328 | 28.94908 | 11520 ft | 351 kts | 181° |
| 2026-05-07 19:42 | 41.24901 | 28.94900 | 12278 ft | 355 kts | 182° |
| 2026-05-07 19:42 | 41.22417 | 28.94764 | 13061 ft | 359 kts | 185° |
| 2026-05-07 19:43 | 41.19913 | 28.94525 | 13839 ft | 363 kts | 186° |
| 2026-05-07 19:43 | 41.17384 | 28.94238 | 14515 ft | 367 kts | 186° |
| 2026-05-07 19:43 | 41.14823 | 28.93940 | 15180 ft | 372 kts | 186° |
| 2026-05-07 19:43 | 41.12232 | 28.93654 | 15812 ft | 376 kts | 186° |
| 2026-05-07 19:44 | 41.09606 | 28.93384 | 16454 ft | 380 kts | 186° |
| 2026-05-07 19:44 | 41.06952 | 28.93172 | 17083 ft | 386 kts | 181° |
| 2026-05-07 19:44 | 41.04258 | 28.93544 | 17710 ft | 393 kts | 169° |
| 2026-05-07 19:44 | 41.01645 | 28.94675 | 18332 ft | 400 kts | 156° |
| 2026-05-07 19:45 | 40.99227 | 28.96537 | 18887 ft | 406 kts | 144° |
| 2026-05-07 19:45 | 40.97110 | 28.99033 | 19458 ft | 410 kts | 135° |
| 2026-05-07 19:45 | 40.95071 | 29.01701 | 20046 ft | 414 kts | 135° |
| 2026-05-07 19:45 | 40.93012 | 29.04378 | 20622 ft | 417 kts | 135° |
| 2026-05-07 19:46 | 40.90927 | 29.07082 | 21195 ft | 421 kts | 135° |
| 2026-05-07 19:46 | 40.88829 | 29.09806 | 21736 ft | 425 kts | 135° |
| 2026-05-07 19:46 | 40.86794 | 29.12581 | 22249 ft | 428 kts | 130° |
| 2026-05-07 19:46 | 40.85041 | 29.15829 | 22767 ft | 431 kts | 119° |
| 2026-05-07 19:47 | 40.83735 | 29.19412 | 23288 ft | 433 kts | 109° |
| 2026-05-07 19:47 | 40.82887 | 29.23169 | 23783 ft | 435 kts | 103° |
| 2026-05-07 19:47 | 40.82125 | 29.27061 | 24215 ft | 439 kts | 102° |
| 2026-05-07 19:47 | 40.81356 | 29.30963 | 24651 ft | 442 kts | 102° |
| 2026-05-07 19:48 | 40.80574 | 29.34902 | 25082 ft | 445 kts | 102° |
| 2026-05-07 19:48 | 40.79787 | 29.38862 | 25504 ft | 447 kts | 102° |
| 2026-05-07 19:48 | 40.78993 | 29.42846 | 25929 ft | 450 kts | 102° |
| 2026-05-07 19:48 | 40.78192 | 29.46854 | 26345 ft | 453 kts | 102° |
| 2026-05-07 19:49 | 40.77383 | 29.50887 | 26723 ft | 456 kts | 102° |
| 2026-05-07 19:49 | 40.76568 | 29.54946 | 27152 ft | 459 kts | 102° |
| 2026-05-07 19:49 | 40.75746 | 29.59044 | 27548 ft | 463 kts | 102° |
| 2026-05-07 19:49 | 40.74919 | 29.63159 | 27953 ft | 466 kts | 102° |
| 2026-05-07 19:50 | 40.74087 | 29.67295 | 28358 ft | 469 kts | 101° |
| 2026-05-07 19:50 | 40.73503 | 29.71515 | 28765 ft | 468 kts | 92° |
| 2026-05-07 19:50 | 40.73348 | 29.75799 | 29155 ft | 469 kts | 88° |
| 2026-05-07 19:50 | 40.73283 | 29.80051 | 29547 ft | 471 kts | 88° |
| 2026-05-07 19:51 | 40.73210 | 29.84385 | 29940 ft | 475 kts | 87° |
| 2026-05-07 19:51 | 40.73132 | 29.88757 | 30261 ft | 479 kts | 87° |
| 2026-05-07 19:51 | 40.73049 | 29.93162 | 30591 ft | 482 kts | 88° |
| 2026-05-07 19:51 | 40.72960 | 29.97585 | 30965 ft | 483 kts | 88° |
| 2026-05-07 19:52 | 40.72868 | 30.01997 | 31116 ft | 480 kts | 88° |
| 2026-05-07 19:52 | 40.72531 | 30.06356 | 31140 ft | 477 kts | 97° |
| 2026-05-07 19:52 | 40.70625 | 30.14751 | 31140 ft | 479 kts | 106° |
| 2026-05-07 19:53 | 40.68425 | 30.23047 | 31135 ft | 480 kts | 106° |
| 2026-05-07 19:53 | 40.66514 | 30.31434 | 31129 ft | 475 kts | 96° |
| 2026-05-07 19:54 | 40.65759 | 30.40047 | 31134 ft | 473 kts | 92° |
| 2026-05-07 19:54 | 40.65052 | 30.48624 | 31122 ft | 474 kts | 92° |
| 2026-05-07 19:55 | 40.64323 | 30.57252 | 31118 ft | 474 kts | 92° |
| 2026-05-07 19:55 | 40.63548 | 30.65883 | 31125 ft | 476 kts | 96° |
| 2026-05-07 19:56 | 40.61492 | 30.74217 | 31132 ft | 484 kts | 115° |
| 2026-05-07 19:56 | 40.57942 | 30.81771 | 31131 ft | 486 kts | 121° |
| 2026-05-07 19:57 | 40.54286 | 30.89248 | 31136 ft | 486 kts | 121° |
| 2026-05-07 19:57 | 40.50637 | 30.96725 | 31158 ft | 486 kts | 120° |
| 2026-05-07 19:58 | 40.46971 | 31.04201 | 31143 ft | 487 kts | 121° |
| 2026-05-07 19:58 | 40.43313 | 31.11625 | 31144 ft | 488 kts | 121° |
| 2026-05-07 19:59 | 40.39666 | 31.19138 | 31157 ft | 487 kts | 116° |
| 2026-05-07 19:59 | 40.37261 | 31.27337 | 31164 ft | 479 kts | 98° |
| 2026-05-07 20:00 | 40.35884 | 31.35884 | 31150 ft | 479 kts | 97° |
| 2026-05-07 20:00 | 40.34487 | 31.44429 | 31155 ft | 480 kts | 98° |
| 2026-05-07 20:01 | 40.33072 | 31.52985 | 31188 ft | 480 kts | 97° |
| 2026-05-07 20:01 | 40.31665 | 31.61540 | 31175 ft | 481 kts | 97° |
| 2026-05-07 20:02 | 40.30252 | 31.70110 | 31169 ft | 481 kts | 97° |
| 2026-05-07 20:02 | 40.28838 | 31.78623 | 31181 ft | 481 kts | 97° |
| 2026-05-07 20:03 | 40.27405 | 31.87198 | 31186 ft | 482 kts | 97° |
| 2026-05-07 20:03 | 40.25889 | 31.95772 | 31178 ft | 484 kts | 99° |
| 2026-05-07 20:04 | 40.24055 | 32.04248 | 31179 ft | 485 kts | 102° |
| 2026-05-07 20:04 | 40.22109 | 32.12716 | 31204 ft | 486 kts | 102° |
| 2026-05-07 20:05 | 40.20219 | 32.21187 | 31201 ft | 485 kts | 101° |
| 2026-05-07 20:05 | 40.18382 | 32.29626 | 31201 ft | 485 kts | 101° |
| 2026-05-07 20:06 | 40.16534 | 32.38113 | 31214 ft | 485 kts | 101° |
| 2026-05-07 20:06 | 40.14673 | 32.46573 | 31215 ft | 484 kts | 102° |
| 2026-05-07 20:07 | 40.12800 | 32.55036 | 31218 ft | 484 kts | 102° |
| 2026-05-07 20:07 | 40.10920 | 32.63462 | 31229 ft | 483 kts | 102° |
| 2026-05-07 20:08 | 40.09041 | 32.71874 | 31223 ft | 482 kts | 102° |
| 2026-05-07 20:08 | 40.07287 | 32.78793 | 31220 ft | 486 kts | 110° |
| 2026-05-07 20:09 | 40.02990 | 32.87428 | 31214 ft | 492 kts | 127° |
| 2026-05-07 20:10 | 39.97171 | 32.96649 | 31218 ft | 493 kts | 127° |
| 2026-05-07 20:10 | 39.92851 | 33.03513 | 31207 ft | 493 kts | 127° |
| 2026-05-07 20:11 | 39.88502 | 33.10413 | 31204 ft | 493 kts | 127° |
| 2026-05-07 20:11 | 39.84135 | 33.17324 | 31211 ft | 493 kts | 127° |
| 2026-05-07 20:12 | 39.79766 | 33.24221 | 31197 ft | 494 kts | 127° |
| 2026-05-07 20:12 | 39.75388 | 33.31119 | 30943 ft | 495 kts | 127° |
| 2026-05-07 20:12 | 39.73221 | 33.34524 | 30700 ft | 495 kts | 127° |
| 2026-05-07 20:13 | 39.71022 | 33.37976 | 30469 ft | 496 kts | 127° |
| 2026-05-07 20:13 | 39.68823 | 33.41426 | 30219 ft | 497 kts | 127° |
| 2026-05-07 20:13 | 39.66612 | 33.44887 | 29941 ft | 498 kts | 127° |
| 2026-05-07 20:13 | 39.64400 | 33.48342 | 29647 ft | 498 kts | 127° |
| 2026-05-07 20:14 | 39.62187 | 33.51797 | 29369 ft | 498 kts | 127° |
| 2026-05-07 20:14 | 39.59976 | 33.55252 | 29120 ft | 498 kts | 127° |
| 2026-05-07 20:14 | 39.57768 | 33.58701 | 28834 ft | 496 kts | 127° |
| 2026-05-07 20:14 | 39.55586 | 33.62148 | 28561 ft | 493 kts | 127° |
| 2026-05-07 20:15 | 39.53440 | 33.65604 | 28296 ft | 491 kts | 126° |
| 2026-05-07 20:15 | 39.51317 | 33.69057 | 28046 ft | 488 kts | 126° |
| 2026-05-07 20:15 | 39.49210 | 33.72486 | 27781 ft | 485 kts | 126° |
| 2026-05-07 20:15 | 39.47112 | 33.75890 | 27514 ft | 482 kts | 126° |
| 2026-05-07 20:16 | 39.45020 | 33.79267 | 27261 ft | 480 kts | 127° |
| 2026-05-07 20:16 | 39.42914 | 33.82600 | 27012 ft | 477 kts | 128° |
| 2026-05-07 20:16 | 39.40795 | 33.85886 | 26754 ft | 475 kts | 128° |
| 2026-05-07 20:16 | 39.38696 | 33.89103 | 26508 ft | 473 kts | 128° |
| 2026-05-07 20:17 | 39.36576 | 33.92337 | 26262 ft | 470 kts | 128° |
| 2026-05-07 20:17 | 39.34472 | 33.95552 | 26027 ft | 467 kts | 128° |
| 2026-05-07 20:17 | 39.32387 | 33.98754 | 25783 ft | 463 kts | 128° |
| 2026-05-07 20:17 | 39.30333 | 34.01934 | 25545 ft | 460 kts | 128° |
| 2026-05-07 20:18 | 39.28298 | 34.05099 | 25301 ft | 457 kts | 128° |
| 2026-05-07 20:19 | 39.20856 | 34.16633 | 24430 ft | 451 kts | 128° |
| 2026-05-07 20:19 | 39.15872 | 34.24334 | 23863 ft | 443 kts | 127° |
| 2026-05-07 20:19 | 39.14118 | 34.27576 | 23605 ft | 439 kts | 120° |
| 2026-05-07 20:20 | 39.12695 | 34.31033 | 23322 ft | 435 kts | 112° |
| 2026-05-07 20:20 | 39.10901 | 34.38010 | 22813 ft | 428 kts | 99° |
| 2026-05-07 20:20 | 39.10479 | 34.41779 | 22544 ft | 424 kts | 92° |
| 2026-05-07 20:21 | 39.10249 | 34.45559 | 22278 ft | 422 kts | 92° |
| 2026-05-07 20:21 | 39.09813 | 34.52542 | 21798 ft | 418 kts | 93° |
| 2026-05-07 20:21 | 39.09576 | 34.56264 | 21540 ft | 416 kts | 93° |
| 2026-05-07 20:22 | 39.09339 | 34.59954 | 21288 ft | 413 kts | 94° |
| 2026-05-07 20:22 | 39.09100 | 34.63641 | 21032 ft | 412 kts | 94° |
| 2026-05-07 20:22 | 39.08863 | 34.67307 | 20780 ft | 410 kts | 94° |
| 2026-05-07 20:22 | 39.08628 | 34.70956 | 20531 ft | 408 kts | 94° |
| 2026-05-07 20:23 | 39.08394 | 34.74596 | 20283 ft | 407 kts | 94° |
| 2026-05-07 20:23 | 39.08161 | 34.78213 | 20038 ft | 406 kts | 94° |
| 2026-05-07 20:23 | 39.07926 | 34.81827 | 19795 ft | 405 kts | 94° |
| 2026-05-07 20:23 | 39.07688 | 34.85430 | 19555 ft | 403 kts | 94° |
| 2026-05-07 20:24 | 39.07452 | 34.88972 | 19319 ft | 402 kts | 94° |
| 2026-05-07 20:24 | 39.07212 | 34.92550 | 19079 ft | 401 kts | 94° |
| 2026-05-07 20:24 | 39.06973 | 34.96120 | 18844 ft | 400 kts | 95° |
| 2026-05-07 20:24 | 39.06732 | 34.99676 | 18620 ft | 398 kts | 95° |
| 2026-05-07 20:25 | 39.06492 | 35.03220 | 18357 ft | 397 kts | 95° |
| 2026-05-07 20:25 | 39.06256 | 35.06754 | 18090 ft | 396 kts | 95° |
| 2026-05-07 20:25 | 39.06020 | 35.10275 | 17824 ft | 394 kts | 95° |
| 2026-05-07 20:25 | 39.05782 | 35.13771 | 17554 ft | 392 kts | 95° |
| 2026-05-07 20:26 | 39.05544 | 35.17261 | 17300 ft | 391 kts | 95° |
| 2026-05-07 20:26 | 39.05305 | 35.20743 | 17040 ft | 389 kts | 95° |
| 2026-05-07 20:26 | 39.05067 | 35.24200 | 16782 ft | 388 kts | 95° |
| 2026-05-07 20:26 | 39.04826 | 35.27645 | 16529 ft | 385 kts | 95° |
| 2026-05-07 20:27 | 39.04584 | 35.31072 | 16277 ft | 384 kts | 95° |
| 2026-05-07 20:27 | 39.04343 | 35.34489 | 16025 ft | 382 kts | 95° |
| 2026-05-07 20:27 | 39.04019 | 35.37874 | 15773 ft | 381 kts | 101° |
| 2026-05-07 20:27 | 39.03321 | 35.41149 | 15523 ft | 379 kts | 107° |
| 2026-05-07 20:28 | 39.02540 | 35.44379 | 15275 ft | 378 kts | 107° |
| 2026-05-07 20:28 | 39.01763 | 35.47602 | 15032 ft | 377 kts | 107° |
| 2026-05-07 20:28 | 39.00990 | 35.50803 | 14634 ft | 372 kts | 107° |
| 2026-05-07 20:28 | 39.00226 | 35.53973 | 14026 ft | 371 kts | 107° |
| 2026-05-07 20:29 | 38.99464 | 35.57132 | 13372 ft | 369 kts | 107° |
| 2026-05-07 20:29 | 38.98708 | 35.60268 | 12762 ft | 366 kts | 107° |
| 2026-05-07 20:29 | 38.97956 | 35.63376 | 12161 ft | 362 kts | 107° |
| 2026-05-07 20:29 | 38.97209 | 35.66456 | 11557 ft | 359 kts | 107° |
| 2026-05-07 20:30 | 38.96473 | 35.69477 | 10957 ft | 357 kts | 107° |
| 2026-05-07 20:30 | 38.95734 | 35.72505 | 10710 ft | 341 kts | 107° |
| 2026-05-07 20:30 | 38.95055 | 35.75288 | 10602 ft | 313 kts | 107° |
| 2026-05-07 20:30 | 38.94433 | 35.77842 | 10358 ft | 294 kts | 107° |
| 2026-05-07 20:31 | 38.93805 | 35.80257 | 10097 ft | 278 kts | 115° |
| 2026-05-07 20:31 | 38.92594 | 35.82057 | 10025 ft | 263 kts | 149° |
| 2026-05-07 20:31 | 38.90936 | 35.82885 | 9866 ft | 255 kts | 171° |
| 2026-05-07 20:31 | 38.89161 | 35.82879 | 9427 ft | 258 kts | 193° |
| 2026-05-07 20:32 | 38.87495 | 35.82026 | 9018 ft | 260 kts | 212° |
| 2026-05-07 20:32 | 38.85943 | 35.80813 | 8592 ft | 264 kts | 212° |
| 2026-05-07 20:32 | 38.84365 | 35.79582 | 8186 ft | 268 kts | 213° |
| 2026-05-07 20:32 | 38.82950 | 35.78030 | 7766 ft | 269 kts | 232° |
| 2026-05-07 20:33 | 38.82040 | 35.75998 | 7378 ft | 258 kts | 252° |
| 2026-05-07 20:33 | 38.81573 | 35.73794 | 7052 ft | 256 kts | 259° |
| 2026-05-07 20:33 | 38.81191 | 35.71590 | 6736 ft | 248 kts | 258° |
| 2026-05-07 20:33 | 38.80802 | 35.69469 | 6407 ft | 241 kts | 258° |
| 2026-05-07 20:34 | 38.80420 | 35.67440 | 6101 ft | 226 kts | 257° |
| 2026-05-07 20:34 | 38.80067 | 35.65565 | 5809 ft | 206 kts | 257° |
| 2026-05-07 20:34 | 38.79744 | 35.63854 | 5537 ft | 189 kts | 257° |
| 2026-05-07 20:34 | 38.79455 | 35.62320 | 5304 ft | 164 kts | 257° |
| 2026-05-07 20:35 | 38.79201 | 35.60975 | 5069 ft | 149 kts | 257° |
| 2026-05-07 20:35 | 38.78965 | 35.59721 | 4860 ft | 144 kts | 256° |
| 2026-05-07 20:35 | 38.78731 | 35.58483 | 4640 ft | 142 kts | 256° |
| 2026-05-07 20:35 | 38.78499 | 35.57257 | 4449 ft | 141 kts | 256° |
| 2026-05-07 20:36 | 38.78265 | 35.56036 | 4253 ft | 140 kts | 256° |
| 2026-05-07 20:36 | 38.78037 | 35.54825 | 4089 ft | 140 kts | 258° |
| 2026-05-07 20:36 | 38.77815 | 35.53613 | 3915 ft | 139 kts | 257° |
| 2026-05-07 20:36 | 38.77590 | 35.52411 | 3728 ft | 138 kts | 256° |
| 2026-05-07 20:37 | 38.77363 | 35.51217 | 3522 ft | 137 kts | 256° |
| 2026-05-07 20:37 | 38.77152 | 35.50120 | 3463 ft | 106 kts | 256° |
| 2026-05-07 20:37 | 38.77018 | 35.49415 | 3468 ft | 57 kts | 256° |